Time;durP1;ratioP1;P1;durP2;ratioP2;P2;SDS_P1;SDS_P2;PMS_P1;PMS_P2;Temp;Humidity;BMP_temperature;BMP_pressure;BME280_temperature;BME280_humidity;BME280_pressure;Samples;Min_cycle;Max_cycle;Signal;HPM_P1;HPM_P2
2024/01/29 00:00:21;;;;;;;4.47;3.67;;;8.40;59.50;10.10;102257.00;;;;5009706;28;20199;-73
2024/01/29 00:02:48;;;;;;;6.10;3.85;;;8.40;59.50;10.10;102265.00;;;;5006573;28;20195;-73
2024/01/29 00:05:15;;;;;;;6.55;3.75;;;8.40;59.50;10.10;102260.00;;;;5004064;28;20488;-73
2024/01/29 00:07:44;;;;;;;4.63;3.28;;;8.40;59.50;10.10;102264.00;;;;5011402;28;20285;-73
2024/01/29 00:10:11;;;;;;;5.45;3.80;;;8.40;59.50;10.10;102257.00;;;;5015911;28;20702;-72
2024/01/29 00:12:38;;;;;;;5.07;4.03;;;8.40;59.50;10.10;102245.00;;;;5015435;28;20197;-73
2024/01/29 00:15:06;;;;;;;5.53;4.03;;;8.40;59.50;10.10;102248.00;;;;5005042;28;20190;-73
2024/01/29 00:17:33;;;;;;;5.05;3.67;;;8.40;59.50;10.10;102256.00;;;;4998310;28;20237;-73
2024/01/29 00:20:00;;;;;;;4.82;3.58;;;8.40;59.50;10.10;102253.00;;;;5003187;28;20288;-73
2024/01/29 00:22:28;;;;;;;6.40;4.15;;;8.40;59.50;10.00;102263.00;;;;4995730;28;20190;-73
2024/01/29 00:24:56;;;;;;;5.22;3.55;;;8.30;59.40;10.00;102246.00;;;;4996118;28;20201;-73
2024/01/29 00:27:23;;;;;;;5.03;3.40;;;8.30;59.40;10.00;102252.00;;;;5007478;28;20315;-73
2024/01/29 00:29:50;;;;;;;6.30;4.25;;;8.30;59.40;10.00;102252.00;;;;5001905;28;20599;-73
2024/01/29 00:32:17;;;;;;;5.28;3.88;;;8.30;59.40;10.00;102242.00;;;;5015694;28;20189;-73
2024/01/29 00:34:46;;;;;;;6.60;4.20;;;8.30;59.40;10.00;102251.00;;;;5007513;28;20208;-73
2024/01/29 00:37:13;;;;;;;5.28;3.80;;;8.30;59.40;10.00;102239.00;;;;4995853;28;20243;-73
2024/01/29 00:39:40;;;;;;;6.50;3.97;;;8.20;59.40;10.00;102241.00;;;;5010343;28;20205;-73
2024/01/29 00:42:08;;;;;;;5.68;3.55;;;8.20;59.40;9.90;102236.00;;;;5015203;28;20193;-73
2024/01/29 00:44:35;;;;;;;6.25;3.92;;;8.20;59.40;9.90;102240.00;;;;5006003;28;20663;-73
2024/01/29 00:47:03;;;;;;;7.07;4.00;;;8.20;59.50;9.90;102240.00;;;;5003151;28;20205;-73
2024/01/29 00:49:31;;;;;;;5.03;3.63;;;8.20;59.50;9.90;102240.00;;;;5015047;28;20189;-73
2024/01/29 00:51:58;;;;;;;4.50;3.65;;;8.10;59.50;9.90;102242.00;;;;5014819;28;20655;-73
2024/01/29 00:54:25;;;;;;;5.60;3.97;;;8.20;59.60;9.90;102245.00;;;;5013888;28;20220;-74
2024/01/29 00:56:53;;;;;;;5.05;3.22;;;8.10;59.50;9.90;102241.00;;;;5014086;28;20189;-74
2024/01/29 00:59:22;;;;;;;6.10;4.47;;;8.10;59.50;9.90;102243.00;;;;4995382;28;20205;-73
2024/01/29 01:01:49;;;;;;;8.95;4.13;;;8.10;59.60;9.90;102245.00;;;;5009258;28;20280;-73
2024/01/29 01:04:17;;;;;;;7.13;4.55;;;8.10;59.60;9.90;102247.00;;;;5008724;28;20197;-73
2024/01/29 01:06:45;;;;;;;6.25;3.67;;;8.10;59.60;9.90;102239.00;;;;5012938;28;20204;-73
2024/01/29 01:09:13;;;;;;;5.88;4.13;;;8.10;60.30;9.90;102238.00;;;;5010002;28;20192;-73
2024/01/29 01:11:42;;;;;;;8.10;3.92;;;8.10;59.70;9.90;102243.00;;;;4994781;28;20522;-73
2024/01/29 01:14:09;;;;;;;4.40;3.53;;;8.10;59.70;9.90;102239.00;;;;4994871;28;20201;-73
2024/01/29 01:16:37;;;;;;;5.50;3.80;;;8.10;59.80;9.80;102244.00;;;;5007083;28;20684;-73
2024/01/29 01:19:04;;;;;;;5.72;3.97;;;8.10;59.80;9.90;102237.00;;;;5008081;28;20226;-73
2024/01/29 01:21:31;;;;;;;6.30;3.95;;;8.10;59.80;9.90;102239.00;;;;4994568;28;20189;-73
2024/01/29 01:23:58;;;;;;;7.05;3.88;;;8.10;59.80;9.90;102237.00;;;;4994930;28;20196;-73
2024/01/29 01:26:25;;;;;;;4.63;3.72;;;8.20;59.80;9.90;102234.00;;;;4994972;28;20207;-73
2024/01/29 01:28:52;;;;;;;6.95;3.65;;;8.10;59.80;9.90;102239.00;;;;5012004;28;20193;-73
2024/01/29 01:31:19;;;;;;;5.20;3.60;;;8.10;59.80;9.90;102236.00;;;;5004869;28;20651;-73
2024/01/29 01:33:48;;;;;;;4.88;3.38;;;8.10;59.80;9.80;102239.00;;;;5004676;28;20197;-73
2024/01/29 01:36:15;;;;;;;6.82;3.63;;;8.10;59.70;9.90;102238.00;;;;5014097;28;20221;-73
2024/01/29 01:38:42;;;;;;;5.60;4.13;;;8.10;59.80;9.90;102240.00;;;;5014330;28;20221;-73
2024/01/29 01:41:09;;;;;;;6.18;3.97;;;8.10;59.80;9.90;102247.00;;;;5009284;28;20197;-73
2024/01/29 01:43:36;;;;;;;6.00;3.90;;;8.20;59.80;9.90;102248.00;;;;4994083;28;20333;-73
2024/01/29 01:46:21;;;;;;;4.05;3.25;;;8.10;59.80;9.70;102255.00;;;;4994291;28;20721;-73
2024/01/29 01:48:52;;;;;;;5.55;3.88;;;8.10;59.80;9.80;102258.00;;;;4994394;28;20548;-73
2024/01/29 01:51:22;;;;;;;4.47;3.60;;;8.10;59.70;9.80;102258.00;;;;5004436;28;20634;-73
2024/01/29 01:53:53;;;;;;;5.03;3.88;;;8.10;59.80;9.80;102257.00;;;;5012459;28;20205;-74
2024/01/29 01:56:21;;;;;;;3.95;3.42;;;8.00;59.70;9.80;102267.00;;;;5006067;28;20201;-73
2024/01/29 01:58:49;;;;;;;5.85;4.15;;;8.00;59.70;9.80;102267.00;;;;5013741;28;20226;-74
2024/01/29 02:01:17;;;;;;;4.28;3.58;;;8.00;59.70;9.70;102271.00;;;;5004229;28;20285;-74
2024/01/29 02:03:44;;;;;;;5.55;4.07;;;8.00;59.70;9.70;102271.00;;;;4993075;28;20194;-73
2024/01/29 02:06:13;;;;;;;6.15;3.97;;;7.90;59.70;9.70;102265.00;;;;4993994;28;20202;-73
2024/01/29 02:08:40;;;;;;;4.70;3.78;;;7.90;59.70;9.70;102264.00;;;;5007559;28;20197;-73
2024/01/29 02:11:07;;;;;;;4.82;3.70;;;7.90;59.80;9.70;102266.00;;;;5008901;28;20193;-74
2024/01/29 02:13:35;;;;;;;5.53;3.90;;;7.90;59.80;9.60;102269.00;;;;5007070;28;20193;-73
2024/01/29 02:16:03;;;;;;;5.38;4.28;;;7.80;59.80;9.60;102273.00;;;;5008887;28;20199;-74
2024/01/29 02:18:30;;;;;;;7.28;4.22;;;7.80;59.80;9.60;102273.00;;;;5012935;28;20232;-74
2024/01/29 02:20:57;;;;;;;5.60;4.32;;;7.80;59.90;9.60;102276.00;;;;5012344;28;20663;-74
2024/01/29 02:23:26;;;;;;;5.40;3.80;;;7.80;59.90;9.50;102276.00;;;;5013445;28;20519;-74
2024/01/29 02:25:53;;;;;;;3.78;3.25;;;7.80;59.90;9.50;102263.00;;;;5006292;28;20731;-74
2024/01/29 02:28:23;;;;;;;7.10;4.47;;;7.70;59.90;9.50;102259.00;;;;4993561;28;20705;-74
2024/01/29 02:30:50;;;;;;;4.95;3.75;;;7.70;59.90;9.50;102262.00;;;;5008940;28;20201;-74
2024/01/29 02:33:17;;;;;;;5.15;3.78;;;7.70;59.90;9.50;102264.00;;;;5007877;28;20627;-74
2024/01/29 02:35:46;;;;;;;5.40;3.95;;;7.60;59.90;9.40;102259.00;;;;5003557;28;20224;-74
2024/01/29 02:38:13;;;;;;;4.90;4.00;;;7.60;59.90;9.40;102253.00;;;;5012921;28;20316;-74
2024/01/29 02:40:41;;;;;;;4.30;3.78;;;7.60;60.00;9.40;102246.00;;;;5010992;28;20460;-74
2024/01/29 02:43:09;;;;;;;4.93;3.83;;;7.60;60.00;9.40;102257.00;;;;5006888;28;20199;-74
2024/01/29 02:45:36;;;;;;;5.30;3.58;;;7.50;60.00;9.30;102258.00;;;;4993491;28;20196;-74
2024/01/29 02:48:03;;;;;;;6.07;4.15;;;7.50;60.00;9.30;102261.00;;;;4992966;28;20197;-74
2024/01/29 02:50:30;;;;;;;8.02;4.63;;;7.50;60.10;9.30;102258.00;;;;4993058;28;20185;-75
2024/01/29 02:52:57;;;;;;;5.95;4.25;;;7.50;60.80;9.30;102255.00;;;;5010702;28;20275;-75
2024/01/29 02:55:24;;;;;;;4.90;3.60;;;7.40;60.10;9.30;102251.00;;;;5001356;28;20194;-75
2024/01/29 02:57:52;;;;;;;6.55;4.18;;;7.40;60.20;9.20;102261.00;;;;4992956;28;20232;-74
2024/01/29 03:00:20;;;;;;;4.63;4.00;;;7.40;60.20;9.20;102261.00;;;;5004542;28;20278;-74
2024/01/29 03:02:47;;;;;;;6.18;4.65;;;7.40;60.20;9.20;102269.00;;;;4995101;28;20204;-74
2024/01/29 03:05:14;;;;;;;5.75;4.35;;;7.40;60.40;9.20;102269.00;;;;4992370;28;20543;-75
2024/01/29 03:07:41;;;;;;;5.22;3.95;;;7.30;60.40;9.20;102268.00;;;;4993484;28;20186;-74
2024/01/29 03:10:09;;;;;;;13.98;5.85;;;7.40;60.50;9.20;102267.00;;;;5001442;28;20643;-74
2024/01/29 03:12:36;;;;;;;6.45;4.38;;;7.30;60.40;9.10;102267.00;;;;5008873;28;20193;-76
2024/01/29 03:15:05;;;;;;;5.57;4.20;;;7.30;60.50;9.10;102267.00;;;;5000748;28;20272;-75
2024/01/29 03:17:32;;;;;;;6.30;4.20;;;7.30;60.50;9.10;102278.00;;;;5005523;28;20304;-74
2024/01/29 03:19:59;;;;;;;5.20;4.07;;;7.30;60.50;9.10;102268.00;;;;5012170;28;20558;-74
2024/01/29 03:22:26;;;;;;;5.00;4.18;;;7.30;60.50;9.10;102259.00;;;;4995720;28;20200;-74
2024/01/29 03:24:53;;;;;;;5.18;3.80;;;7.30;61.20;9.10;102260.00;;;;5011617;28;20203;-74
2024/01/29 03:27:20;;;;;;;5.15;4.00;;;7.20;60.50;9.10;102267.00;;;;5012670;28;20201;-75
2024/01/29 03:29:47;;;;;;;5.43;3.75;;;7.20;60.50;9.10;102271.00;;;;5012416;28;20201;-74
2024/01/29 03:32:16;;;;;;;5.05;4.05;;;7.20;60.50;9.00;102265.00;;;;4997593;28;20562;-74
2024/01/29 03:34:43;;;;;;;6.15;4.03;;;7.20;60.60;9.00;102271.00;;;;5006210;28;20196;-75
2024/01/29 03:37:13;;;;;;;5.57;3.88;;;7.20;60.70;9.00;102270.00;;;;5001112;28;20201;-74
2024/01/29 03:39:40;;;;;;;7.63;3.78;;;7.10;60.60;9.00;102262.00;;;;4995939;28;20221;-75
2024/01/29 03:42:07;;;;;;;8.18;4.03;;;7.10;60.60;9.00;102275.00;;;;5008809;28;20197;-74
2024/01/29 03:44:34;;;;;;;5.65;4.03;;;7.10;60.60;9.00;102276.00;;;;5012056;28;20184;-74
2024/01/29 03:47:01;;;;;;;5.70;4.28;;;7.10;60.60;9.00;102271.00;;;;5011860;28;20189;-75
2024/01/29 03:49:29;;;;;;;5.38;3.88;;;7.10;60.60;8.90;102274.00;;;;5011064;28;20197;-74
2024/01/29 03:51:57;;;;;;;5.72;3.75;;;7.10;60.70;8.90;102281.00;;;;5010893;28;20215;-75
2024/01/29 03:54:24;;;;;;;5.38;4.40;;;7.10;60.70;8.90;102279.00;;;;5012102;28;20629;-74
2024/01/29 03:56:51;;;;;;;5.70;4.25;;;7.10;60.80;8.90;102289.00;;;;5011515;28;20189;-74
2024/01/29 03:59:18;;;;;;;5.90;3.88;;;7.00;60.70;8.90;102281.00;;;;5012125;28;20582;-75
2024/01/29 04:01:45;;;;;;;5.85;4.15;;;7.00;60.80;8.90;102282.00;;;;5010863;28;20189;-75
2024/01/29 04:04:12;;;;;;;6.78;3.72;;;7.00;60.90;8.90;102277.00;;;;4998823;28;20211;-74
2024/01/29 04:06:41;;;;;;;5.95;4.50;;;7.00;61.60;8.90;102282.00;;;;4995437;28;20231;-74
2024/01/29 04:09:09;;;;;;;5.32;4.20;;;7.00;60.90;8.90;102281.00;;;;4999533;28;20189;-74
2024/01/29 04:11:36;;;;;;;5.03;3.72;;;7.00;60.90;8.90;102282.00;;;;5003841;28;20629;-75
2024/01/29 04:14:03;;;;;;;4.95;4.00;;;7.00;60.90;8.90;102288.00;;;;5011823;28;20664;-75
2024/01/29 04:16:30;;;;;;;6.22;4.57;;;7.00;61.00;8.90;102285.00;;;;4999941;28;20201;-75
2024/01/29 04:18:57;;;;;;;5.95;3.90;;;7.00;61.00;8.90;102294.00;;;;5007416;28;20229;-74
2024/01/29 04:21:24;;;;;;;5.32;4.15;;;7.00;61.10;8.90;102277.00;;;;5011608;28;20196;-74
2024/01/29 04:23:53;;;;;;;5.68;4.00;;;7.00;61.10;8.90;102272.00;;;;5011526;28;20225;-75
2024/01/29 04:26:20;;;;;;;5.53;4.75;;;7.00;61.80;8.90;102276.00;;;;5010483;28;20288;-75
2024/01/29 04:28:47;;;;;;;6.88;4.50;;;7.00;61.80;8.90;102280.00;;;;5010347;28;20519;-74
2024/01/29 04:31:15;;;;;;;6.57;4.65;;;7.00;61.20;8.90;102282.00;;;;5003465;28;20197;-75
2024/01/29 04:33:43;;;;;;;5.88;4.47;;;7.00;61.20;8.90;102280.00;;;;4994024;28;20194;-74
2024/01/29 04:36:14;;;;;;;6.10;4.47;;;7.00;61.20;8.90;102278.00;;;;4992173;28;20217;-75
2024/01/29 04:38:43;;;;;;;5.43;4.03;;;7.00;61.20;8.90;102278.00;;;;5002092;28;20224;-75
2024/01/29 04:41:18;;;;;;;5.10;4.38;;;7.00;61.20;8.80;102266.00;;;;5006383;28;20706;-74
2024/01/29 04:43:45;;;;;;;5.43;4.20;;;7.00;61.30;8.90;102269.00;;;;4995949;28;20635;-74
2024/01/29 04:46:12;;;;;;;5.13;4.07;;;7.00;61.30;8.90;102257.00;;;;4991343;28;20217;-74
2024/01/29 04:48:40;;;;;;;7.18;4.95;;;7.00;61.30;8.90;102262.00;;;;5001999;28;20231;-74
2024/01/29 04:51:07;;;;;;;5.95;4.25;;;7.00;61.30;8.90;102273.00;;;;5005149;28;20200;-75
2024/01/29 04:53:35;;;;;;;7.85;4.72;;;7.00;61.30;8.90;102274.00;;;;5009241;28;20193;-75
2024/01/29 04:56:03;;;;;;;6.07;4.90;;;7.00;61.40;8.90;102272.00;;;;4998820;28;20605;-75
2024/01/29 04:58:32;;;;;;;7.45;4.78;;;7.00;61.40;8.90;102271.00;;;;5000465;28;20695;-74
2024/01/29 05:01:01;;;;;;;5.82;4.20;;;7.00;61.40;8.90;102268.00;;;;4995589;28;20196;-74
2024/01/29 05:03:29;;;;;;;6.53;4.68;;;7.00;61.40;8.90;102264.00;;;;4995513;28;20244;-74
2024/01/29 05:05:56;;;;;;;6.32;4.32;;;7.00;61.40;8.90;102265.00;;;;4997991;28;20197;-74
2024/01/29 05:08:24;;;;;;;5.63;4.32;;;7.00;61.50;8.90;102251.00;;;;5009027;28;20199;-74
2024/01/29 05:10:51;;;;;;;5.78;4.20;;;7.00;61.50;8.90;102253.00;;;;5008618;28;20197;-74
2024/01/29 05:13:18;;;;;;;5.72;4.30;;;7.00;61.60;8.90;102248.00;;;;5013834;28;20185;-74
2024/01/29 05:15:46;;;;;;;5.55;4.43;;;7.00;61.60;8.90;102259.00;;;;5011323;28;20197;-75
2024/01/29 05:18:13;;;;;;;6.28;4.75;;;7.00;61.60;8.90;102264.00;;;;5012239;28;20597;-74
2024/01/29 05:20:40;;;;;;;4.82;3.92;;;7.10;61.60;9.00;102265.00;;;;5012035;28;20224;-75
2024/01/29 05:23:07;;;;;;;5.22;4.50;;;7.10;61.60;9.00;102257.00;;;;4994880;28;20212;-75
2024/01/29 05:25:34;;;;;;;8.23;5.18;;;7.10;61.70;9.00;102265.00;;;;4994573;28;20190;-74
2024/01/29 05:28:01;;;;;;;7.45;4.35;;;7.10;61.70;9.00;102265.00;;;;5011374;28;20621;-74
2024/01/29 05:30:29;;;;;;;5.78;4.30;;;7.10;61.60;9.00;102256.00;;;;5011143;28;20661;-74
2024/01/29 05:32:57;;;;;;;5.78;4.05;;;7.10;61.50;9.00;102261.00;;;;5006616;28;20650;-74
2024/01/29 05:35:24;;;;;;;5.45;4.13;;;7.10;61.60;9.00;102265.00;;;;5012586;28;20208;-74
2024/01/29 05:37:51;;;;;;;5.38;4.60;;;7.10;61.50;9.00;102269.00;;;;5012924;28;20197;-74
2024/01/29 05:40:18;;;;;;;6.57;4.57;;;7.10;61.60;9.00;102271.00;;;;5014433;28;20229;-75
2024/01/29 05:42:52;;;;;;;6.70;4.85;;;7.10;61.60;9.00;102279.00;;;;5014554;28;20189;-74
2024/01/29 05:45:19;;;;;;;5.05;4.38;;;7.10;61.70;9.00;102269.00;;;;5014462;28;20259;-74
2024/01/29 05:47:46;;;;;;;4.75;4.18;;;7.10;61.70;9.00;102255.00;;;;5007876;28;20282;-74
2024/01/29 05:50:15;;;;;;;6.47;4.53;;;7.10;61.70;9.00;102271.00;;;;5013987;28;20204;-74
2024/01/29 05:52:43;;;;;;;5.30;3.92;;;7.10;61.70;9.00;102270.00;;;;5013933;28;20201;-74
2024/01/29 05:55:10;;;;;;;6.30;4.38;;;7.10;61.70;9.00;102279.00;;;;5013755;28;20196;-75
2024/01/29 05:57:37;;;;;;;5.47;4.55;;;7.10;61.70;9.10;102271.00;;;;5010284;28;20694;-74
2024/01/29 06:00:09;;;;;;;7.55;4.25;;;7.10;61.70;9.10;102274.00;;;;5011461;28;20320;-76
2024/01/29 06:02:42;;;;;;;7.15;4.65;;;7.10;61.70;9.10;102287.00;;;;4995667;28;20195;-74
2024/01/29 06:05:11;;;;;;;7.05;4.32;;;7.10;61.70;9.10;102275.00;;;;5011610;28;20196;-74
2024/01/29 06:07:40;;;;;;;7.00;5.18;;;7.20;61.80;9.10;102277.00;;;;5008902;28;20189;-74
2024/01/29 06:10:09;;;;;;;8.18;5.00;;;7.20;61.80;9.10;102282.00;;;;5012156;28;20264;-74
2024/01/29 06:12:36;;;;;;;9.45;6.65;;;7.20;61.80;9.10;102291.00;;;;5000152;28;20207;-74
2024/01/29 06:15:04;;;;;;;11.48;7.68;;;7.20;61.90;9.10;102291.00;;;;4994670;28;20279;-74
2024/01/29 06:17:32;;;;;;;12.43;8.35;;;7.20;61.90;9.10;102288.00;;;;5000127;28;20324;-74
2024/01/29 06:19:59;;;;;;;12.23;8.07;;;7.20;61.90;9.10;102286.00;;;;5007946;28;20260;-74
2024/01/29 06:22:26;;;;;;;13.30;7.75;;;7.20;61.90;9.10;102295.00;;;;5000584;28;20193;-75
2024/01/29 06:24:54;;;;;;;9.82;6.50;;;7.20;61.90;9.10;102291.00;;;;4999330;28;20701;-75
2024/01/29 06:27:21;;;;;;;10.27;6.95;;;7.20;61.90;9.10;102298.00;;;;5003052;28;20208;-74
2024/01/29 06:29:48;;;;;;;10.95;6.90;;;7.20;61.90;9.20;102307.00;;;;5008816;28;20284;-74
2024/01/29 06:32:15;;;;;;;8.85;6.00;;;7.20;61.90;9.20;102304.00;;;;5012767;28;20203;-75
2024/01/29 06:34:43;;;;;;;9.00;6.28;;;7.20;61.90;9.10;102301.00;;;;5002811;28;20670;-74
2024/01/29 06:37:10;;;;;;;10.27;6.85;;;7.20;61.90;9.20;102306.00;;;;4993831;28;20220;-75
2024/01/29 06:39:37;;;;;;;8.55;5.88;;;7.20;61.90;9.20;102305.00;;;;5005923;28;20224;-75
2024/01/29 06:42:06;;;;;;;7.28;5.50;;;7.30;61.90;9.10;102305.00;;;;5012862;28;20303;-74
2024/01/29 06:44:33;;;;;;;8.30;5.60;;;7.20;61.90;9.20;102306.00;;;;5008242;28;20200;-74
2024/01/29 06:47:00;;;;;;;6.30;4.55;;;7.30;62.00;9.20;102310.00;;;;5008245;28;20531;-74
2024/01/29 06:49:30;;;;;;;9.93;5.40;;;7.30;62.00;9.20;102326.00;;;;5006248;28;20280;-74
2024/01/29 06:51:58;;;;;;;8.90;4.97;;;7.20;61.90;9.20;102322.00;;;;5000796;28;20192;-74
2024/01/29 06:54:25;;;;;;;7.38;4.82;;;7.30;62.00;9.20;102318.00;;;;4999200;28;20200;-73
2024/01/29 06:56:53;;;;;;;10.70;7.28;;;7.30;62.00;9.10;102317.00;;;;5009495;28;20458;-75
2024/01/29 06:59:24;;;;;;;8.82;5.82;;;7.20;62.10;9.20;102324.00;;;;4993045;28;20221;-74
2024/01/29 07:01:52;;;;;;;8.35;5.28;;;7.20;62.40;9.20;102328.00;;;;5004393;28;20716;-73
2024/01/29 07:04:19;;;;;;;5.60;4.50;;;7.30;62.40;9.20;102325.00;;;;5010941;28;20280;-74
2024/01/29 07:06:46;;;;;;;7.93;4.80;;;7.30;62.20;9.20;102324.00;;;;5012909;28;20189;-74
2024/01/29 07:09:13;;;;;;;7.30;4.75;;;7.30;62.10;9.20;102323.00;;;;5005781;28;20225;-74
2024/01/29 07:11:40;;;;;;;6.45;4.20;;;7.30;62.10;9.20;102322.00;;;;5009614;28;20696;-74
2024/01/29 07:14:07;;;;;;;6.47;4.80;;;7.30;62.10;9.20;102325.00;;;;5012321;28;20299;-74
2024/01/29 07:16:36;;;;;;;6.78;4.45;;;7.30;62.10;9.20;102326.00;;;;5012746;28;20199;-74
2024/01/29 07:19:03;;;;;;;7.70;5.63;;;7.30;62.80;9.20;102327.00;;;;5011928;28;20231;-74
2024/01/29 07:21:30;;;;;;;7.85;5.35;;;7.30;62.20;9.20;102328.00;;;;5010335;28;20189;-74
2024/01/29 07:23:57;;;;;;;7.53;5.68;;;7.40;62.20;9.20;102328.00;;;;5011315;28;20205;-74
2024/01/29 07:26:24;;;;;;;8.02;5.75;;;7.30;62.20;9.20;102329.00;;;;5011644;28;20197;-73
2024/01/29 07:28:51;;;;;;;7.50;6.03;;;7.40;62.20;9.30;102335.00;;;;5009023;28;20204;-74
2024/01/29 07:31:18;;;;;;;6.88;4.90;;;7.30;62.20;9.30;102350.00;;;;5010259;28;20196;-74
2024/01/29 07:33:47;;;;;;;7.95;5.65;;;7.30;62.20;9.30;102350.00;;;;5011888;28;21148;-74
2024/01/29 07:36:14;;;;;;;7.68;5.35;;;7.30;62.20;9.30;102356.00;;;;5011623;28;20216;-74
2024/01/29 07:38:41;;;;;;;6.95;5.07;;;7.30;62.20;9.20;102351.00;;;;5006551;28;20202;-73
2024/01/29 07:41:08;;;;;;;7.15;5.10;;;7.40;62.30;9.30;102354.00;;;;5011421;28;20231;-74
2024/01/29 07:43:35;;;;;;;8.25;5.13;;;7.40;62.40;9.30;102364.00;;;;5007697;28;20650;-74
2024/01/29 07:46:02;;;;;;;10.80;4.95;;;7.30;62.30;9.30;102367.00;;;;5000630;28;20201;-73
2024/01/29 07:48:29;;;;;;;6.32;4.55;;;7.40;62.40;9.30;102360.00;;;;5007075;28;20271;-73
2024/01/29 07:50:58;;;;;;;5.90;4.65;;;7.40;62.40;9.30;102362.00;;;;5001342;28;20205;-73
2024/01/29 07:53:25;;;;;;;7.20;5.35;;;7.40;62.40;9.30;102357.00;;;;4995221;28;20200;-73
2024/01/29 07:55:52;;;;;;;6.35;4.55;;;7.40;62.40;9.30;102362.00;;;;4993989;28;20288;-73
2024/01/29 07:58:19;;;;;;;7.57;4.85;;;7.40;62.50;9.30;102363.00;;;;5000027;28;20551;-73
2024/01/29 08:00:46;;;;;;;8.30;5.18;;;7.40;62.50;9.30;102365.00;;;;5011268;28;20230;-73
2024/01/29 08:03:13;;;;;;;6.68;4.88;;;7.40;62.60;9.40;102359.00;;;;5009554;28;20285;-73
2024/01/29 08:05:40;;;;;;;9.57;4.90;;;7.50;62.70;9.40;102364.00;;;;5003656;28;20193;-74
2024/01/29 08:08:09;;;;;;;8.35;5.03;;;7.50;63.40;9.40;102365.00;;;;5009944;28;20203;-73
2024/01/29 08:10:36;;;;;;;5.18;4.32;;;7.50;62.70;9.40;102367.00;;;;5004405;28;20194;-74
2024/01/29 08:13:04;;;;;;;6.22;4.50;;;7.50;62.70;9.50;102367.00;;;;5011674;28;20228;-73
2024/01/29 08:15:31;;;;;;;6.80;4.97;;;7.50;62.70;9.50;102381.00;;;;5011962;28;20193;-73
2024/01/29 08:17:58;;;;;;;6.47;4.57;;;7.60;62.80;9.50;102382.00;;;;5005092;28;20673;-74
2024/01/29 08:20:26;;;;;;;5.53;4.32;;;7.60;62.70;9.50;102386.00;;;;5002550;28;20212;-74
2024/01/29 08:22:53;;;;;;;6.50;4.53;;;7.60;62.80;9.60;102378.00;;;;5003179;28;20204;-76
2024/01/29 08:25:22;;;;;;;4.85;3.97;;;7.70;62.80;9.60;102377.00;;;;5009615;28;20280;-74
2024/01/29 08:27:49;;;;;;;5.70;4.57;;;7.70;62.80;9.60;102378.00;;;;4992961;28;20206;-74
2024/01/29 08:30:17;;;;;;;7.05;4.57;;;7.70;62.80;9.70;102369.00;;;;5001671;28;20288;-74
2024/01/29 08:32:44;;;;;;;6.70;4.28;;;7.70;62.80;9.70;102369.00;;;;5012431;28;20539;-73
2024/01/29 08:35:13;;;;;;;5.65;4.38;;;7.80;62.90;9.70;102374.00;;;;5005173;28;20221;-74
2024/01/29 08:37:41;;;;;;;6.28;4.90;;;7.80;62.90;9.80;102377.00;;;;5005448;28;20197;-74
2024/01/29 08:40:08;;;;;;;6.55;4.25;;;7.80;62.90;9.80;102366.00;;;;5015462;28;20224;-73
2024/01/29 08:42:37;;;;;;;6.35;4.65;;;7.90;63.10;9.80;102366.00;;;;5012539;28;20200;-73
2024/01/29 08:45:05;;;;;;;4.70;4.20;;;7.90;63.10;9.90;102372.00;;;;5015213;28;20219;-74
2024/01/29 08:47:32;;;;;;;5.55;4.18;;;7.90;63.10;9.90;102362.00;;;;5010282;28;20500;-74
2024/01/29 08:49:59;;;;;;;6.68;4.95;;;8.00;63.20;10.00;102362.00;;;;5012024;28;20212;-73
2024/01/29 08:52:26;;;;;;;6.82;4.43;;;8.00;63.90;10.00;102366.00;;;;5012086;28;20635;-73
2024/01/29 08:54:53;;;;;;;8.20;4.95;;;8.10;63.20;10.00;102374.00;;;;5011295;28;20674;-73
2024/01/29 08:57:20;;;;;;;7.15;4.35;;;8.10;63.20;10.10;102377.00;;;;5010722;28;20673;-73
2024/01/29 08:59:49;;;;;;;7.38;4.43;;;8.10;63.20;10.10;102377.00;;;;5010343;28;20637;-74
2024/01/29 09:02:16;;;;;;;5.00;4.20;;;8.20;63.30;10.20;102382.00;;;;5001620;28;20232;-73
2024/01/29 09:04:43;;;;;;;6.85;5.00;;;8.20;63.30;10.20;102368.00;;;;5005339;28;20194;-73
2024/01/29 09:07:10;;;;;;;6.32;4.53;;;8.30;63.30;10.30;102383.00;;;;5012401;28;20192;-73
2024/01/29 09:09:37;;;;;;;4.72;4.00;;;8.30;63.30;10.30;102382.00;;;;4998842;28;20204;-73
2024/01/29 09:12:05;;;;;;;5.45;4.32;;;8.40;63.30;10.30;102386.00;;;;5003898;28;20548;-73
2024/01/29 09:14:32;;;;;;;5.32;4.18;;;8.40;63.30;10.40;102384.00;;;;5012440;28;20578;-73
2024/01/29 09:17:01;;;;;;;6.20;4.40;;;8.40;63.40;10.40;102391.00;;;;5013408;28;20732;-73
2024/01/29 09:19:28;;;;;;;6.15;4.35;;;8.50;63.40;10.50;102384.00;;;;5006155;28;20231;-73
2024/01/29 09:21:55;;;;;;;6.22;4.68;;;8.50;63.40;10.60;102382.00;;;;5013273;28;20217;-73
2024/01/29 09:24:21;;;;;;;5.93;4.63;;;8.60;63.50;10.60;102382.00;;;;5008847;28;20800;-73
2024/01/29 09:26:48;;;;;;;6.90;4.68;;;8.60;63.60;10.70;102388.00;;;;5003883;28;20212;-73
2024/01/29 09:29:15;;;;;;;5.05;3.92;;;8.70;63.60;10.70;102383.00;;;;5000176;28;20212;-73
2024/01/29 09:31:43;;;;;;;7.55;4.40;;;8.80;63.70;10.80;102398.00;;;;5003738;28;20196;-73
2024/01/29 09:34:12;;;;;;;5.47;4.50;;;8.80;63.70;10.80;102397.00;;;;5005686;28;20225;-73
2024/01/29 09:36:39;;;;;;;8.45;4.38;;;8.90;63.80;10.90;102397.00;;;;5009553;28;20235;-73
2024/01/29 09:39:07;;;;;;;6.65;4.25;;;9.00;63.80;10.90;102398.00;;;;5000136;28;20296;-73
2024/01/29 09:41:35;;;;;;;5.32;4.07;;;9.00;63.80;11.00;102395.00;;;;4997211;28;20248;-73
2024/01/29 09:44:08;;;;;;;5.43;3.75;;;9.10;63.80;11.00;102399.00;;;;5014025;28;20207;-73
2024/01/29 09:46:38;;;;;;;6.15;4.28;;;9.20;63.80;11.10;102397.00;;;;4999430;28;20193;-73
2024/01/29 09:49:06;;;;;;;5.97;4.10;;;9.20;63.70;11.20;102396.00;;;;5012778;28;20193;-73
2024/01/29 09:51:35;;;;;;;5.25;4.18;;;9.30;63.70;11.20;102391.00;;;;5012862;28;20189;-73
2024/01/29 09:54:05;;;;;;;5.47;4.47;;;9.40;63.70;11.30;102396.00;;;;5009848;28;20197;-72
2024/01/29 09:56:32;;;;;;;5.05;4.20;;;9.40;63.70;11.30;102395.00;;;;5011191;28;20193;-73
2024/01/29 09:58:59;;;;;;;6.35;4.55;;;9.50;63.70;11.40;102399.00;;;;4999730;28;20195;-73
2024/01/29 10:01:26;;;;;;;6.65;4.82;;;9.50;63.70;11.50;102402.00;;;;5012577;28;20224;-73
2024/01/29 10:03:53;;;;;;;5.47;4.55;;;9.60;63.80;11.50;102394.00;;;;5012180;28;20189;-73
2024/01/29 10:06:20;;;;;;;5.53;4.32;;;9.60;63.70;11.60;102409.00;;;;5013013;28;20201;-73
2024/01/29 10:08:49;;;;;;;6.00;4.95;;;9.70;63.70;11.70;102419.00;;;;5013513;28;20200;-72
2024/01/29 10:11:18;;;;;;;5.85;4.80;;;9.80;63.90;11.70;102425.00;;;;4998317;28;20237;-73
2024/01/29 10:13:48;;;;;;;5.90;4.90;;;9.80;63.80;11.80;102423.00;;;;4995647;28;20198;-73
2024/01/29 10:16:16;;;;;;;6.75;4.60;;;9.90;64.00;11.90;102425.00;;;;5012247;28;20240;-74
2024/01/29 10:18:43;;;;;;;7.18;4.40;;;10.00;64.00;12.00;102418.00;;;;5013183;28;20217;-72
2024/01/29 10:21:10;;;;;;;7.05;5.15;;;10.10;64.00;12.10;102429.00;;;;5009885;28;20588;-73
2024/01/29 10:23:37;;;;;;;6.88;5.43;;;10.10;64.10;12.20;102420.00;;;;5013062;28;20288;-73
2024/01/29 10:26:05;;;;;;;7.97;5.30;;;10.30;64.20;12.30;102423.00;;;;4997107;28;20615;-73
2024/01/29 10:28:32;;;;;;;7.05;5.45;;;10.40;64.30;12.40;102430.00;;;;4996007;28;20678;-73
2024/01/29 10:31:00;;;;;;;7.20;5.03;;;10.50;64.40;12.50;102435.00;;;;5000421;28;20215;-73
2024/01/29 10:33:28;;;;;;;6.93;5.63;;;10.60;64.40;12.60;102430.00;;;;5005868;28;20199;-73
2024/01/29 10:35:59;;;;;;;7.40;5.22;;;10.70;64.40;12.80;102437.00;;;;5004981;28;20213;-73
2024/01/29 10:38:29;;;;;;;8.13;5.38;;;10.80;64.50;12.90;102442.00;;;;5001831;28;20301;-73
2024/01/29 10:40:59;;;;;;;6.43;5.57;;;11.00;64.50;13.10;102444.00;;;;5003818;28;20686;-73
2024/01/29 10:43:37;;;;;;;7.20;5.43;;;11.10;64.60;13.20;102444.00;;;;4999866;28;20659;-73
2024/01/29 10:46:09;;;;;;;8.00;5.65;;;11.30;64.50;13.30;102451.00;;;;4992552;28;20205;-73
2024/01/29 10:48:38;;;;;;;9.13;6.40;;;11.40;65.00;13.40;102453.00;;;;5010600;28;20563;-73
2024/01/29 10:51:07;;;;;;;9.95;6.30;;;11.50;64.30;13.60;102450.00;;;;5008542;28;20200;-73
2024/01/29 10:53:36;;;;;;;7.43;5.65;;;11.70;64.20;13.70;102452.00;;;;5011543;28;20534;-73
2024/01/29 10:56:06;;;;;;;12.05;6.75;;;11.80;64.10;13.80;102454.00;;;;5011547;28;20563;-73
2024/01/29 10:58:36;;;;;;;10.48;5.97;;;11.90;64.00;13.90;102450.00;;;;5008928;28;20201;-73
2024/01/29 11:01:04;;;;;;;9.48;6.30;;;12.00;63.90;14.00;102450.00;;;;4992646;28;20675;-73